Aviation Digital Data Service (ADDS)

Output produced by METARs form (1141 UTC 17 June 2019)
found at http://www.aviationweather.gov/metar/data/
 
METAR text: YBTL 171130Z AUTO 23002KT 9999 // NCD 20/18 Q1017
Conditions at: YBTL (TOWNSVILLE(CIV/M, AU) observed 1130 UTC 17 June 2019
Temperature: 20.0°C (68°F)
Dewpoint: 18.0°C (64°F) [RH = 88%]
Pressure (altimeter): 30.03 inches Hg (1017.0 mb)
Winds: from the SW (230 degrees) at 2 MPH (2 knots; 1.0 m/s)
Visibility: 6 or more miles (10+ km)
Ceiling: at least 12,000 feet AGL
Clouds: sky clear below 12,000 feet AGL
Weather: no significant weather observed at this time

METAR text: YBTL 171100Z AUTO 23002KT 9999 // NCD 21/19 Q1017
Conditions at: YBTL (TOWNSVILLE(CIV/M, AU) observed 1100 UTC 17 June 2019
Temperature: 21.0°C (70°F)
Dewpoint: 19.0°C (66°F) [RH = 88%]
Pressure (altimeter): 30.03 inches Hg (1017.0 mb)
Winds: from the SW (230 degrees) at 2 MPH (2 knots; 1.0 m/s)
Visibility: 6 or more miles (10+ km)
Ceiling: at least 12,000 feet AGL
Clouds: sky clear below 12,000 feet AGL
Weather: no significant weather observed at this time

METAR text: YBTL 171030Z AUTO 24005KT 9999 // NCD 21/19 Q1017
Conditions at: YBTL (TOWNSVILLE(CIV/M, AU) observed 1030 UTC 17 June 2019
Temperature: 21.0°C (70°F)
Dewpoint: 19.0°C (66°F) [RH = 88%]
Pressure (altimeter): 30.03 inches Hg (1017.0 mb)
Winds: from the WSW (240 degrees) at 6 MPH (5 knots; 2.6 m/s)
Visibility: 6 or more miles (10+ km)
Ceiling: at least 12,000 feet AGL
Clouds: sky clear below 12,000 feet AGL
Weather: no significant weather observed at this time

METAR text: YBTL 171000Z AUTO 24005KT 9999 // NCD 21/20 Q1016
Conditions at: YBTL (TOWNSVILLE(CIV/M, AU) observed 1000 UTC 17 June 2019
Temperature: 21.0°C (70°F)
Dewpoint: 20.0°C (68°F) [RH = 94%]
Pressure (altimeter): 30.00 inches Hg (1016.0 mb)
Winds: from the WSW (240 degrees) at 6 MPH (5 knots; 2.6 m/s)
Visibility: 6 or more miles (10+ km)
Ceiling: at least 12,000 feet AGL
Clouds: sky clear below 12,000 feet AGL
Weather: no significant weather observed at this time

METAR text: YBTL 170930Z AUTO 27004KT 9999 // NCD 21/20 Q1016
Conditions at: YBTL (TOWNSVILLE(CIV/M, AU) observed 0930 UTC 17 June 2019
Temperature: 21.0°C (70°F)
Dewpoint: 20.0°C (68°F) [RH = 94%]
Pressure (altimeter): 30.00 inches Hg (1016.0 mb)
Winds: from the W (270 degrees) at 5 MPH (4 knots; 2.1 m/s)
Visibility: 6 or more miles (10+ km)
Ceiling: at least 12,000 feet AGL
Clouds: sky clear below 12,000 feet AGL
Weather: no significant weather observed at this time

METAR text: YBTL 170900Z AUTO 26005KT 9999 // NCD 21/19 Q1016
Conditions at: YBTL (TOWNSVILLE(CIV/M, AU) observed 0900 UTC 17 June 2019
Temperature: 21.0°C (70°F)
Dewpoint: 19.0°C (66°F) [RH = 88%]
Pressure (altimeter): 30.00 inches Hg (1016.0 mb)
Winds: from the W (260 degrees) at 6 MPH (5 knots; 2.6 m/s)
Visibility: 6 or more miles (10+ km)
Ceiling: at least 12,000 feet AGL
Clouds: sky clear below 12,000 feet AGL
Weather: no significant weather observed at this time

METAR text: YBTL 170830Z AUTO 26004KT 9999 // NCD 21/19 Q1015
Conditions at: YBTL (TOWNSVILLE(CIV/M, AU) observed 0830 UTC 17 June 2019
Temperature: 21.0°C (70°F)
Dewpoint: 19.0°C (66°F) [RH = 88%]
Pressure (altimeter): 29.97 inches Hg (1015.0 mb)
Winds: from the W (260 degrees) at 5 MPH (4 knots; 2.1 m/s)
Visibility: 6 or more miles (10+ km)
Ceiling: at least 12,000 feet AGL
Clouds: sky clear below 12,000 feet AGL
Weather: no significant weather observed at this time

METAR text: YBTL 170800Z 29006KT CAVOK 22/19 Q1015 NOSIG RMK USE TAF FOR ARRIVALS AFTER 0815Z
Conditions at: YBTL (TOWNSVILLE(CIV/M, AU) observed 0800 UTC 17 June 2019
Temperature: 22.0°C (72°F)
Dewpoint: 19.0°C (66°F) [RH = 83%]
Pressure (altimeter): 29.97 inches Hg (1015.0 mb)
Winds: from the WNW (290 degrees) at 7 MPH (6 knots; 3.1 m/s)
Visibility: 6 or more miles (10+ km)
Ceiling: ceiling and visibility are OK
Clouds: unknown
Weather: no significant weather observed at this time

METAR text: YBTL 170730Z 35004KT CAVOK 24/18 Q1014
Conditions at: YBTL (TOWNSVILLE(CIV/M, AU) observed 0730 UTC 17 June 2019
Temperature: 24.0°C (75°F)
Dewpoint: 18.0°C (64°F) [RH = 69%]
Pressure (altimeter): 29.94 inches Hg (1014.0 mb)
Winds: from the N (350 degrees) at 5 MPH (4 knots; 2.1 m/s)
Visibility: 6 or more miles (10+ km)
Ceiling: ceiling and visibility are OK
Clouds: unknown
Weather: no significant weather observed at this time

METAR text: YBTL 170700Z 36005KT 9999 FEW046 25/18 Q1014 NOSIG RMK USE TAF FOR ARRIVALS AFTER 0800Z
Conditions at: YBTL (TOWNSVILLE(CIV/M, AU) observed 0700 UTC 17 June 2019
Temperature: 25.0°C (77°F)
Dewpoint: 18.0°C (64°F) [RH = 65%]
Pressure (altimeter): 29.94 inches Hg (1014.0 mb)
Winds: from the N (360 degrees) at 6 MPH (5 knots; 2.6 m/s)
Visibility: 6 or more miles (10+ km)
Ceiling: at least 12,000 feet AGL
Clouds: few clouds at 4600 feet AGL
Weather: no significant weather observed at this time

METAR text: YBTL 170630Z 03005KT 9999 FEW045 27/15 Q1014 NOSIG RMK USE TAF FOR ARRIVALS AFTER 0800Z
Conditions at: YBTL (TOWNSVILLE(CIV/M, AU) observed 0630 UTC 17 June 2019
Temperature: 27.0°C (81°F)
Dewpoint: 15.0°C (59°F) [RH = 48%]
Pressure (altimeter): 29.94 inches Hg (1014.0 mb)
Winds: from the NNE (30 degrees) at 6 MPH (5 knots; 2.6 m/s)
Visibility: 6 or more miles (10+ km)
Ceiling: at least 12,000 feet AGL
Clouds: few clouds at 4500 feet AGL
Weather: no significant weather observed at this time

METAR text: YBTL 170600Z AUTO 03007KT 9999 // NCD 27/14 Q1014
Conditions at: YBTL (TOWNSVILLE(CIV/M, AU) observed 0600 UTC 17 June 2019
Temperature: 27.0°C (81°F)
Dewpoint: 14.0°C (57°F) [RH = 45%]
Pressure (altimeter): 29.94 inches Hg (1014.0 mb)
Winds: from the NNE (30 degrees) at 8 MPH (7 knots; 3.6 m/s)
Visibility: 6 or more miles (10+ km)
Ceiling: at least 12,000 feet AGL
Clouds: sky clear below 12,000 feet AGL
Weather: no significant weather observed at this time

METAR text: YBTL 170530Z 03009KT 9999 FEW045 27/15 Q1014 NOSIG RMK USE TAF FOR ARRIVALS AFTER 0800Z
Conditions at: YBTL (TOWNSVILLE(CIV/M, AU) observed 0530 UTC 17 June 2019
Temperature: 27.0°C (81°F)
Dewpoint: 15.0°C (59°F) [RH = 48%]
Pressure (altimeter): 29.94 inches Hg (1014.0 mb)
Winds: from the NNE (30 degrees) at 10 MPH (9 knots; 4.6 m/s)
Visibility: 6 or more miles (10+ km)
Ceiling: at least 12,000 feet AGL
Clouds: few clouds at 4500 feet AGL
Weather: no significant weather observed at this time

METAR text: YBTL 170500Z 05009KT 9999 FEW048 27/15 Q1014 NOSIG
Conditions at: YBTL (TOWNSVILLE(CIV/M, AU) observed 0500 UTC 17 June 2019
Temperature: 27.0°C (81°F)
Dewpoint: 15.0°C (59°F) [RH = 48%]
Pressure (altimeter): 29.94 inches Hg (1014.0 mb)
Winds: from the NE (50 degrees) at 10 MPH (9 knots; 4.6 m/s)
Visibility: 6 or more miles (10+ km)
Ceiling: at least 12,000 feet AGL
Clouds: few clouds at 4800 feet AGL
Weather: no significant weather observed at this time

METAR text: YBTL 170430Z 04009KT 9999 FEW049 27/17 Q1014 NOSIG
Conditions at: YBTL (TOWNSVILLE(CIV/M, AU) observed 0430 UTC 17 June 2019
Temperature: 27.0°C (81°F)
Dewpoint: 17.0°C (63°F) [RH = 54%]
Pressure (altimeter): 29.94 inches Hg (1014.0 mb)
Winds: from the NE (40 degrees) at 10 MPH (9 knots; 4.6 m/s)
Visibility: 6 or more miles (10+ km)
Ceiling: at least 12,000 feet AGL
Clouds: few clouds at 4900 feet AGL
Weather: no significant weather observed at this time

METAR text: YBTL 170400Z 05010KT 9999 FEW048 28/16 Q1014
Conditions at: YBTL (TOWNSVILLE(CIV/M, AU) observed 0400 UTC 17 June 2019
Temperature: 28.0°C (82°F)
Dewpoint: 16.0°C (61°F) [RH = 48%]
Pressure (altimeter): 29.94 inches Hg (1014.0 mb)
Winds: from the NE (50 degrees) at 12 MPH (10 knots; 5.1 m/s)
Visibility: 6 or more miles (10+ km)
Ceiling: at least 12,000 feet AGL
Clouds: few clouds at 4800 feet AGL
Weather: no significant weather observed at this time

METAR text: YBTL 170330Z 06008KT 9999 FEW046 28/17 Q1014 NOSIG
Conditions at: YBTL (TOWNSVILLE(CIV/M, AU) observed 0330 UTC 17 June 2019
Temperature: 28.0°C (82°F)
Dewpoint: 17.0°C (63°F) [RH = 51%]
Pressure (altimeter): 29.94 inches Hg (1014.0 mb)
Winds: from the ENE (60 degrees) at 9 MPH (8 knots; 4.1 m/s)
Visibility: 6 or more miles (10+ km)
Ceiling: at least 12,000 feet AGL
Clouds: few clouds at 4600 feet AGL
Weather: no significant weather observed at this time

METAR text: YBTL 170300Z 19011KT 130V190 9999 FEW050 28/11 Q1015 NOSIG
Conditions at: YBTL (TOWNSVILLE(CIV/M, AU) observed 0300 UTC 17 June 2019
Temperature: 28.0°C (82°F)
Dewpoint: 11.0°C (52°F) [RH = 35%]
Pressure (altimeter): 29.97 inches Hg (1015.0 mb)
Winds: from the S (190 degrees) at 13 MPH (11 knots; 5.7 m/s)
Visibility: 6 or more miles (10+ km)
Ceiling: at least 12,000 feet AGL
Clouds: few clouds at 5000 feet AGL
Weather: no significant weather observed at this time

METAR text: YBTL 170230Z 15008KT 9999 FEW042 28/12 Q1015 NOSIG
Conditions at: YBTL (TOWNSVILLE(CIV/M, AU) observed 0230 UTC 17 June 2019
Temperature: 28.0°C (82°F)
Dewpoint: 12.0°C (54°F) [RH = 37%]
Pressure (altimeter): 29.97 inches Hg (1015.0 mb)
Winds: from the SSE (150 degrees) at 9 MPH (8 knots; 4.1 m/s)
Visibility: 6 or more miles (10+ km)
Ceiling: at least 12,000 feet AGL
Clouds: few clouds at 4200 feet AGL
Weather: no significant weather observed at this time

METAR text: YBTL 170200Z 19007KT 9999 FEW040 27/15 Q1016 NOSIG
Conditions at: YBTL (TOWNSVILLE(CIV/M, AU) observed 0200 UTC 17 June 2019
Temperature: 27.0°C (81°F)
Dewpoint: 15.0°C (59°F) [RH = 48%]
Pressure (altimeter): 30.00 inches Hg (1016.0 mb)
Winds: from the S (190 degrees) at 8 MPH (7 knots; 3.6 m/s)
Visibility: 6 or more miles (10+ km)
Ceiling: at least 12,000 feet AGL
Clouds: few clouds at 4000 feet AGL
Weather: no significant weather observed at this time

METAR text: YBTL 170130Z 21009KT 9999 FEW027 27/14 Q1016 NOSIG
Conditions at: YBTL (TOWNSVILLE(CIV/M, AU) observed 0130 UTC 17 June 2019
Temperature: 27.0°C (81°F)
Dewpoint: 14.0°C (57°F) [RH = 45%]
Pressure (altimeter): 30.00 inches Hg (1016.0 mb)
Winds: from the SSW (210 degrees) at 10 MPH (9 knots; 4.6 m/s)
Visibility: 6 or more miles (10+ km)
Ceiling: at least 12,000 feet AGL
Clouds: few clouds at 2700 feet AGL
Weather: no significant weather observed at this time

METAR text: YBTL 170100Z 23009KT 9999 FEW025 26/16 Q1017 NOSIG
Conditions at: YBTL (TOWNSVILLE(CIV/M, AU) observed 0100 UTC 17 June 2019
Temperature: 26.0°C (79°F)
Dewpoint: 16.0°C (61°F) [RH = 54%]
Pressure (altimeter): 30.03 inches Hg (1017.0 mb)
Winds: from the SW (230 degrees) at 10 MPH (9 knots; 4.6 m/s)
Visibility: 6 or more miles (10+ km)
Ceiling: at least 12,000 feet AGL
Clouds: few clouds at 2500 feet AGL
Weather: no significant weather observed at this time

METAR text: YBTL 170030Z 23005KT 9999 FEW027 26/16 Q1017 NOSIG
Conditions at: YBTL (TOWNSVILLE(CIV/M, AU) observed 0030 UTC 17 June 2019
Temperature: 26.0°C (79°F)
Dewpoint: 16.0°C (61°F) [RH = 54%]
Pressure (altimeter): 30.03 inches Hg (1017.0 mb)
Winds: from the SW (230 degrees) at 6 MPH (5 knots; 2.6 m/s)
Visibility: 6 or more miles (10+ km)
Ceiling: at least 12,000 feet AGL
Clouds: few clouds at 2700 feet AGL
Weather: no significant weather observed at this time

METAR text: YBTL 170000Z 17004KT 150V220 9999 FEW028 25/18 Q1018 NOSIG
Conditions at: YBTL (TOWNSVILLE(CIV/M, AU) observed 0000 UTC 17 June 2019
Temperature: 25.0°C (77°F)
Dewpoint: 18.0°C (64°F) [RH = 65%]
Pressure (altimeter): 30.06 inches Hg (1018.0 mb)
Winds: from the S (170 degrees) at 5 MPH (4 knots; 2.1 m/s)
Visibility: 6 or more miles (10+ km)
Ceiling: at least 12,000 feet AGL
Clouds: few clouds at 2800 feet AGL
Weather: no significant weather observed at this time

METAR text: YBTL 162330Z 18005KT 9999 FEW024 SCT067 24/18 Q1018 NOSIG
Conditions at: YBTL (TOWNSVILLE(CIV/M, AU) observed 2330 UTC 16 June 2019
Temperature: 24.0°C (75°F)
Dewpoint: 18.0°C (64°F) [RH = 69%]
Pressure (altimeter): 30.06 inches Hg (1018.0 mb)
Winds: from the S (180 degrees) at 6 MPH (5 knots; 2.6 m/s)
Visibility: 6 or more miles (10+ km)
Ceiling: at least 12,000 feet AGL
Clouds: few clouds at 2400 feet AGL
scattered clouds at 6700 feet AGL
Weather: no significant weather observed at this time

METAR text: YBTL 162300Z 19006KT 9999 FEW004 SCT065 23/18 Q1018 NOSIG
Conditions at: YBTL (TOWNSVILLE(CIV/M, AU) observed 2300 UTC 16 June 2019
Temperature: 23.0°C (73°F)
Dewpoint: 18.0°C (64°F) [RH = 73%]
Pressure (altimeter): 30.06 inches Hg (1018.0 mb)
Winds: from the S (190 degrees) at 7 MPH (6 knots; 3.1 m/s)
Visibility: 6 or more miles (10+ km)
Ceiling: at least 12,000 feet AGL
Clouds: few clouds at 400 feet AGL
scattered clouds at 6500 feet AGL
Weather: no significant weather observed at this time

METAR text: YBTL 162230Z 00000KT 9999 VCFG FEW007 SCT065 21/18 Q1018 NOSIG
Conditions at: YBTL (TOWNSVILLE(CIV/M, AU) observed 2230 UTC 16 June 2019
Temperature: 21.0°C (70°F)
Dewpoint: 18.0°C (64°F) [RH = 83%]
Pressure (altimeter): 30.06 inches Hg (1018.0 mb)
Winds: calm
Visibility: 6 or more miles (10+ km)
Ceiling: at least 12,000 feet AGL
Clouds: few clouds at 700 feet AGL
scattered clouds at 6500 feet AGL
Weather: VCFG  (fog in vicinity)

METAR text: YBTL 162200Z 00000KT 9999 VCFG FEW003 19/18 Q1017 NOSIG
Conditions at: YBTL (TOWNSVILLE(CIV/M, AU) observed 2200 UTC 16 June 2019
Temperature: 19.0°C (66°F)
Dewpoint: 18.0°C (64°F) [RH = 94%]
Pressure (altimeter): 30.03 inches Hg (1017.0 mb)
Winds: calm
Visibility: 6 or more miles (10+ km)
Ceiling: at least 12,000 feet AGL
Clouds: few clouds at 300 feet AGL
Weather: VCFG  (fog in vicinity)

METAR text: YBTL 162130Z 00000KT 9999 MIFG FEW004 SCT078 BKN300 18/17 Q1017
Conditions at: YBTL (TOWNSVILLE(CIV/M, AU) observed 2130 UTC 16 June 2019
Temperature: 18.0°C (64°F)
Dewpoint: 17.0°C (63°F) [RH = 94%]
Pressure (altimeter): 30.03 inches Hg (1017.0 mb)
Winds: calm
Visibility: 6 or more miles (10+ km)
Ceiling: 30000 feet AGL
Clouds: few clouds at 400 feet AGL
scattered clouds at 7800 feet AGL
broken clouds at 30000 feet AGL
Weather: MIFG  (shallow fog)

METAR text: YBTL 162100Z 17002KT 9999 MIFG NSC 17/16 Q1017
Conditions at: YBTL (TOWNSVILLE(CIV/M, AU) observed 2100 UTC 16 June 2019
Temperature: 17.0°C (63°F)
Dewpoint: 16.0°C (61°F) [RH = 94%]
Pressure (altimeter): 30.03 inches Hg (1017.0 mb)
Winds: from the S (170 degrees) at 2 MPH (2 knots; 1.0 m/s)
Visibility: 6 or more miles (10+ km)
Ceiling: at least 12,000 feet AGL
Clouds: sky clear below 12,000 feet AGL
Weather: MIFG  (shallow fog)

METAR text: YBTL 162030Z 17001KT 9999 MIFG NSC 18/17 Q1016
Conditions at: YBTL (TOWNSVILLE(CIV/M, AU) observed 2030 UTC 16 June 2019
Temperature: 18.0°C (64°F)
Dewpoint: 17.0°C (63°F) [RH = 94%]
Pressure (altimeter): 30.00 inches Hg (1016.0 mb)
Winds: from the S (170 degrees) at 1 MPH (1 knots; 0.5 m/s)
Visibility: 6 or more miles (10+ km)
Ceiling: at least 12,000 feet AGL
Clouds: sky clear below 12,000 feet AGL
Weather: MIFG  (shallow fog)

METAR text: YBTL 162000Z 17001KT CAVOK 18/17 Q1016
Conditions at: YBTL (TOWNSVILLE(CIV/M, AU) observed 2000 UTC 16 June 2019
Temperature: 18.0°C (64°F)
Dewpoint: 17.0°C (63°F) [RH = 94%]
Pressure (altimeter): 30.00 inches Hg (1016.0 mb)
Winds: from the S (170 degrees) at 1 MPH (1 knots; 0.5 m/s)
Visibility: 6 or more miles (10+ km)
Ceiling: ceiling and visibility are OK
Clouds: unknown
Weather: no significant weather observed at this time

METAR text: YBTL 161930Z AUTO 00000KT 9999 // NCD 18/17 Q1016
Conditions at: YBTL (TOWNSVILLE(CIV/M, AU) observed 1930 UTC 16 June 2019
Temperature: 18.0°C (64°F)
Dewpoint: 17.0°C (63°F) [RH = 94%]
Pressure (altimeter): 30.00 inches Hg (1016.0 mb)
Winds: calm
Visibility: 6 or more miles (10+ km)
Ceiling: at least 12,000 feet AGL
Clouds: sky clear below 12,000 feet AGL
Weather: no significant weather observed at this time

METAR text: YBTL 161900Z AUTO 00000KT 9999 // NCD 18/18 Q1016
Conditions at: YBTL (TOWNSVILLE(CIV/M, AU) observed 1900 UTC 16 June 2019
Temperature: 18.0°C (64°F)
Dewpoint: 18.0°C (64°F) [RH = 100%]
Pressure (altimeter): 30.00 inches Hg (1016.0 mb)
Winds: calm
Visibility: 6 or more miles (10+ km)
Ceiling: at least 12,000 feet AGL
Clouds: sky clear below 12,000 feet AGL
Weather: no significant weather observed at this time

METAR text: YBTL 161830Z AUTO 36004KT 9999 // NCD 18/18 Q1016
Conditions at: YBTL (TOWNSVILLE(CIV/M, AU) observed 1830 UTC 16 June 2019
Temperature: 18.0°C (64°F)
Dewpoint: 18.0°C (64°F) [RH = 100%]
Pressure (altimeter): 30.00 inches Hg (1016.0 mb)
Winds: from the N (360 degrees) at 5 MPH (4 knots; 2.1 m/s)
Visibility: 6 or more miles (10+ km)
Ceiling: at least 12,000 feet AGL
Clouds: sky clear below 12,000 feet AGL
Weather: no significant weather observed at this time

METAR text: YBTL 161800Z AUTO 00000KT 9999 // NCD 18/18 Q1016
Conditions at: YBTL (TOWNSVILLE(CIV/M, AU) observed 1800 UTC 16 June 2019
Temperature: 18.0°C (64°F)
Dewpoint: 18.0°C (64°F) [RH = 100%]
Pressure (altimeter): 30.00 inches Hg (1016.0 mb)
Winds: calm
Visibility: 6 or more miles (10+ km)
Ceiling: at least 12,000 feet AGL
Clouds: sky clear below 12,000 feet AGL
Weather: no significant weather observed at this time

METAR text: YBTL 161730Z AUTO 00000KT 9999 // SCT084 19/18 Q1015
Conditions at: YBTL (TOWNSVILLE(CIV/M, AU) observed 1730 UTC 16 June 2019
Temperature: 19.0°C (66°F)
Dewpoint: 18.0°C (64°F) [RH = 94%]
Pressure (altimeter): 29.97 inches Hg (1015.0 mb)
Winds: calm
Visibility: 6 or more miles (10+ km)
Ceiling: at least 12,000 feet AGL
Clouds: scattered clouds at 8400 feet AGL
Weather: no significant weather observed at this time

METAR text: YBTL 161700Z AUTO 00000KT 9999 // OVC084 19/19 Q1015
Conditions at: YBTL (TOWNSVILLE(CIV/M, AU) observed 1700 UTC 16 June 2019
Temperature: 19.0°C (66°F)
Dewpoint: 19.0°C (66°F) [RH = 100%]
Pressure (altimeter): 29.97 inches Hg (1015.0 mb)
Winds: calm
Visibility: 6 or more miles (10+ km)
Ceiling: 8400 feet AGL
Clouds: overcast cloud deck at 8400 feet AGL
Weather: no significant weather observed at this time

METAR text: YBTL 161630Z AUTO 00000KT 9999 // BKN084 20/19 Q1016
Conditions at: YBTL (TOWNSVILLE(CIV/M, AU) observed 1630 UTC 16 June 2019
Temperature: 20.0°C (68°F)
Dewpoint: 19.0°C (66°F) [RH = 94%]
Pressure (altimeter): 30.00 inches Hg (1016.0 mb)
Winds: calm
Visibility: 6 or more miles (10+ km)
Ceiling: 8400 feet AGL
Clouds: broken clouds at 8400 feet AGL
Weather: no significant weather observed at this time

METAR text: YBTL 161600Z AUTO 24002KT 9999 // OVC082 20/19 Q1016
Conditions at: YBTL (TOWNSVILLE(CIV/M, AU) observed 1600 UTC 16 June 2019
Temperature: 20.0°C (68°F)
Dewpoint: 19.0°C (66°F) [RH = 94%]
Pressure (altimeter): 30.00 inches Hg (1016.0 mb)
Winds: from the WSW (240 degrees) at 2 MPH (2 knots; 1.0 m/s)
Visibility: 6 or more miles (10+ km)
Ceiling: 8200 feet AGL
Clouds: overcast cloud deck at 8200 feet AGL
Weather: no significant weather observed at this time

METAR text: YBTL 161530Z AUTO 00000KT 9999 // OVC082 20/19 Q1016
Conditions at: YBTL (TOWNSVILLE(CIV/M, AU) observed 1530 UTC 16 June 2019
Temperature: 20.0°C (68°F)
Dewpoint: 19.0°C (66°F) [RH = 94%]
Pressure (altimeter): 30.00 inches Hg (1016.0 mb)
Winds: calm
Visibility: 6 or more miles (10+ km)
Ceiling: 8200 feet AGL
Clouds: overcast cloud deck at 8200 feet AGL
Weather: no significant weather observed at this time

METAR text: YBTL 161500Z AUTO 17003KT 9999 // OVC082 20/19 Q1016
Conditions at: YBTL (TOWNSVILLE(CIV/M, AU) observed 1500 UTC 16 June 2019
Temperature: 20.0°C (68°F)
Dewpoint: 19.0°C (66°F) [RH = 94%]
Pressure (altimeter): 30.00 inches Hg (1016.0 mb)
Winds: from the S (170 degrees) at 3 MPH (3 knots; 1.5 m/s)
Visibility: 6 or more miles (10+ km)
Ceiling: 8200 feet AGL
Clouds: overcast cloud deck at 8200 feet AGL
Weather: no significant weather observed at this time

METAR text: YBTL 161430Z AUTO 17004KT 9999 // OVC080 20/19 Q1017
Conditions at: YBTL (TOWNSVILLE(CIV/M, AU) observed 1430 UTC 16 June 2019
Temperature: 20.0°C (68°F)
Dewpoint: 19.0°C (66°F) [RH = 94%]
Pressure (altimeter): 30.03 inches Hg (1017.0 mb)
Winds: from the S (170 degrees) at 5 MPH (4 knots; 2.1 m/s)
Visibility: 6 or more miles (10+ km)
Ceiling: 8000 feet AGL
Clouds: overcast cloud deck at 8000 feet AGL
Weather: no significant weather observed at this time

METAR text: YBTL 161400Z AUTO 20004KT 9999 // OVC078 21/19 Q1017
Conditions at: YBTL (TOWNSVILLE(CIV/M, AU) observed 1400 UTC 16 June 2019
Temperature: 21.0°C (70°F)
Dewpoint: 19.0°C (66°F) [RH = 88%]
Pressure (altimeter): 30.03 inches Hg (1017.0 mb)
Winds: from the SSW (200 degrees) at 5 MPH (4 knots; 2.1 m/s)
Visibility: 6 or more miles (10+ km)
Ceiling: 7800 feet AGL
Clouds: overcast cloud deck at 7800 feet AGL
Weather: no significant weather observed at this time

METAR text: YBTL 161330Z AUTO 20005KT 9999 // BKN078 21/19 Q1017
Conditions at: YBTL (TOWNSVILLE(CIV/M, AU) observed 1330 UTC 16 June 2019
Temperature: 21.0°C (70°F)
Dewpoint: 19.0°C (66°F) [RH = 88%]
Pressure (altimeter): 30.03 inches Hg (1017.0 mb)
Winds: from the SSW (200 degrees) at 6 MPH (5 knots; 2.6 m/s)
Visibility: 6 or more miles (10+ km)
Ceiling: 7800 feet AGL
Clouds: broken clouds at 7800 feet AGL
Weather: no significant weather observed at this time

METAR text: YBTL 161300Z AUTO 13003KT 9999 // NCD 21/19 Q1017
Conditions at: YBTL (TOWNSVILLE(CIV/M, AU) observed 1300 UTC 16 June 2019
Temperature: 21.0°C (70°F)
Dewpoint: 19.0°C (66°F) [RH = 88%]
Pressure (altimeter): 30.03 inches Hg (1017.0 mb)
Winds: from the SE (130 degrees) at 3 MPH (3 knots; 1.5 m/s)
Visibility: 6 or more miles (10+ km)
Ceiling: at least 12,000 feet AGL
Clouds: sky clear below 12,000 feet AGL
Weather: no significant weather observed at this time

METAR text: YBTL 161230Z AUTO 15005KT 9999 // NCD 20/19 Q1017
Conditions at: YBTL (TOWNSVILLE(CIV/M, AU) observed 1230 UTC 16 June 2019
Temperature: 20.0°C (68°F)
Dewpoint: 19.0°C (66°F) [RH = 94%]
Pressure (altimeter): 30.03 inches Hg (1017.0 mb)
Winds: from the SSE (150 degrees) at 6 MPH (5 knots; 2.6 m/s)
Visibility: 6 or more miles (10+ km)
Ceiling: at least 12,000 feet AGL
Clouds: sky clear below 12,000 feet AGL
Weather: no significant weather observed at this time

METAR text: YBTL 161200Z AUTO 14005KT 9999 // NCD 21/19 Q1017
Conditions at: YBTL (TOWNSVILLE(CIV/M, AU) observed 1200 UTC 16 June 2019
Temperature: 21.0°C (70°F)
Dewpoint: 19.0°C (66°F) [RH = 88%]
Pressure (altimeter): 30.03 inches Hg (1017.0 mb)
Winds: from the SE (140 degrees) at 6 MPH (5 knots; 2.6 m/s)
Visibility: 6 or more miles (10+ km)
Ceiling: at least 12,000 feet AGL
Clouds: sky clear below 12,000 feet AGL
Weather: no significant weather observed at this time

METAR text: YBTL 161130Z AUTO 14006KT 9999 // SCT013 21/20 Q1017
Conditions at: YBTL (TOWNSVILLE(CIV/M, AU) observed 1130 UTC 16 June 2019
Temperature: 21.0°C (70°F)
Dewpoint: 20.0°C (68°F) [RH = 94%]
Pressure (altimeter): 30.03 inches Hg (1017.0 mb)
Winds: from the SE (140 degrees) at 7 MPH (6 knots; 3.1 m/s)
Visibility: 6 or more miles (10+ km)
Ceiling: at least 12,000 feet AGL
Clouds: scattered clouds at 1300 feet AGL
Weather: no significant weather observed at this time

METAR text: YBTL 161100Z AUTO 15006KT 9999 // SCT013 21/20 Q1017
Conditions at: YBTL (TOWNSVILLE(CIV/M, AU) observed 1100 UTC 16 June 2019
Temperature: 21.0°C (70°F)
Dewpoint: 20.0°C (68°F) [RH = 94%]
Pressure (altimeter): 30.03 inches Hg (1017.0 mb)
Winds: from the SSE (150 degrees) at 7 MPH (6 knots; 3.1 m/s)
Visibility: 6 or more miles (10+ km)
Ceiling: at least 12,000 feet AGL
Clouds: scattered clouds at 1300 feet AGL
Weather: no significant weather observed at this time

METAR text: YBTL 161030Z AUTO 13005KT 9999 // NCD 21/20 Q1017
Conditions at: YBTL (TOWNSVILLE(CIV/M, AU) observed 1030 UTC 16 June 2019
Temperature: 21.0°C (70°F)
Dewpoint: 20.0°C (68°F) [RH = 94%]
Pressure (altimeter): 30.03 inches Hg (1017.0 mb)
Winds: from the SE (130 degrees) at 6 MPH (5 knots; 2.6 m/s)
Visibility: 6 or more miles (10+ km)
Ceiling: at least 12,000 feet AGL
Clouds: sky clear below 12,000 feet AGL
Weather: no significant weather observed at this time

METAR text: YBTL 161000Z AUTO 09006KT 9999 // BKN080 22/20 Q1017
Conditions at: YBTL (TOWNSVILLE(CIV/M, AU) observed 1000 UTC 16 June 2019
Temperature: 22.0°C (72°F)
Dewpoint: 20.0°C (68°F) [RH = 88%]
Pressure (altimeter): 30.03 inches Hg (1017.0 mb)
Winds: from the E (90 degrees) at 7 MPH (6 knots; 3.1 m/s)
Visibility: 6 or more miles (10+ km)
Ceiling: 8000 feet AGL
Clouds: broken clouds at 8000 feet AGL
Weather: no significant weather observed at this time

METAR text: YBTL 160930Z AUTO 10007KT 9999 // OVC078 22/20 Q1017
Conditions at: YBTL (TOWNSVILLE(CIV/M, AU) observed 0930 UTC 16 June 2019
Temperature: 22.0°C (72°F)
Dewpoint: 20.0°C (68°F) [RH = 88%]
Pressure (altimeter): 30.03 inches Hg (1017.0 mb)
Winds: from the E (100 degrees) at 8 MPH (7 knots; 3.6 m/s)
Visibility: 6 or more miles (10+ km)
Ceiling: 7800 feet AGL
Clouds: overcast cloud deck at 7800 feet AGL
Weather: no significant weather observed at this time

METAR text: YBTL 160900Z AUTO 11007KT 9999 // BKN072 OVC081 23/20 Q1016
Conditions at: YBTL (TOWNSVILLE(CIV/M, AU) observed 0900 UTC 16 June 2019
Temperature: 23.0°C (73°F)
Dewpoint: 20.0°C (68°F) [RH = 83%]
Pressure (altimeter): 30.00 inches Hg (1016.0 mb)
Winds: from the ESE (110 degrees) at 8 MPH (7 knots; 3.6 m/s)
Visibility: 6 or more miles (10+ km)
Ceiling: 7200 feet AGL
Clouds: broken clouds at 7200 feet AGL
overcast cloud deck at 8100 feet AGL
Weather: no significant weather observed at this time

METAR text: YBTL 160830Z AUTO 09007KT 9999 // OVC068 OVC085 23/20 Q1016
Conditions at: YBTL (TOWNSVILLE(CIV/M, AU) observed 0830 UTC 16 June 2019
Temperature: 23.0°C (73°F)
Dewpoint: 20.0°C (68°F) [RH = 83%]
Pressure (altimeter): 30.00 inches Hg (1016.0 mb)
Winds: from the E (90 degrees) at 8 MPH (7 knots; 3.6 m/s)
Visibility: 6 or more miles (10+ km)
Ceiling: 6800 feet AGL
Clouds: overcast cloud deck at 6800 feet AGL
overcast cloud deck at 8500 feet AGL
Weather: no significant weather observed at this time

METAR text: YBTL 160800Z AUTO 08008KT 9999 // OVC068 23/20 Q1016
Conditions at: YBTL (TOWNSVILLE(CIV/M, AU) observed 0800 UTC 16 June 2019
Temperature: 23.0°C (73°F)
Dewpoint: 20.0°C (68°F) [RH = 83%]
Pressure (altimeter): 30.00 inches Hg (1016.0 mb)
Winds: from the E (80 degrees) at 9 MPH (8 knots; 4.1 m/s)
Visibility: 6 or more miles (10+ km)
Ceiling: 6800 feet AGL
Clouds: overcast cloud deck at 6800 feet AGL
Weather: no significant weather observed at this time

METAR text: YBTL 160730Z AUTO 07010KT 9999 // OVC068 23/20 Q1015
Conditions at: YBTL (TOWNSVILLE(CIV/M, AU) observed 0730 UTC 16 June 2019
Temperature: 23.0°C (73°F)
Dewpoint: 20.0°C (68°F) [RH = 83%]
Pressure (altimeter): 29.97 inches Hg (1015.0 mb)
Winds: from the ENE (70 degrees) at 12 MPH (10 knots; 5.1 m/s)
Visibility: 6 or more miles (10+ km)
Ceiling: 6800 feet AGL
Clouds: overcast cloud deck at 6800 feet AGL
Weather: no significant weather observed at this time

METAR text: YBTL 160700Z AUTO 07010KT 9999 // BKN064 OVC075 23/20 Q1015
Conditions at: YBTL (TOWNSVILLE(CIV/M, AU) observed 0700 UTC 16 June 2019
Temperature: 23.0°C (73°F)
Dewpoint: 20.0°C (68°F) [RH = 83%]
Pressure (altimeter): 29.97 inches Hg (1015.0 mb)
Winds: from the ENE (70 degrees) at 12 MPH (10 knots; 5.1 m/s)
Visibility: 6 or more miles (10+ km)
Ceiling: 6400 feet AGL
Clouds: broken clouds at 6400 feet AGL
overcast cloud deck at 7500 feet AGL
Weather: no significant weather observed at this time

METAR text: YBTL 160630Z AUTO 07011KT 9999 // OVC063 24/20 Q1015
Conditions at: YBTL (TOWNSVILLE(CIV/M, AU) observed 0630 UTC 16 June 2019
Temperature: 24.0°C (75°F)
Dewpoint: 20.0°C (68°F) [RH = 78%]
Pressure (altimeter): 29.97 inches Hg (1015.0 mb)
Winds: from the ENE (70 degrees) at 13 MPH (11 knots; 5.7 m/s)
Visibility: 6 or more miles (10+ km)
Ceiling: 6300 feet AGL
Clouds: overcast cloud deck at 6300 feet AGL
Weather: no significant weather observed at this time

METAR text: YBTL 160600Z AUTO 08013KT 9999 // OVC063 25/20 Q1015
Conditions at: YBTL (TOWNSVILLE(CIV/M, AU) observed 0600 UTC 16 June 2019
Temperature: 25.0°C (77°F)
Dewpoint: 20.0°C (68°F) [RH = 74%]
Pressure (altimeter): 29.97 inches Hg (1015.0 mb)
Winds: from the E (80 degrees) at 15 MPH (13 knots; 6.7 m/s)
Visibility: 6 or more miles (10+ km)
Ceiling: 6300 feet AGL
Clouds: overcast cloud deck at 6300 feet AGL
Weather: no significant weather observed at this time

METAR text: YBTL 160530Z AUTO 09013KT 9999 // OVC063 24/20 Q1015
Conditions at: YBTL (TOWNSVILLE(CIV/M, AU) observed 0530 UTC 16 June 2019
Temperature: 24.0°C (75°F)
Dewpoint: 20.0°C (68°F) [RH = 78%]
Pressure (altimeter): 29.97 inches Hg (1015.0 mb)
Winds: from the E (90 degrees) at 15 MPH (13 knots; 6.7 m/s)
Visibility: 6 or more miles (10+ km)
Ceiling: 6300 feet AGL
Clouds: overcast cloud deck at 6300 feet AGL
Weather: no significant weather observed at this time

METAR text: YBTL 160500Z AUTO 06015KT 9999 // OVC065 25/19 Q1014
Conditions at: YBTL (TOWNSVILLE(CIV/M, AU) observed 0500 UTC 16 June 2019
Temperature: 25.0°C (77°F)
Dewpoint: 19.0°C (66°F) [RH = 69%]
Pressure (altimeter): 29.94 inches Hg (1014.0 mb)
Winds: from the ENE (60 degrees) at 17 MPH (15 knots; 7.7 m/s)
Visibility: 6 or more miles (10+ km)
Ceiling: 6500 feet AGL
Clouds: overcast cloud deck at 6500 feet AGL
Weather: no significant weather observed at this time

METAR text: YBTL 160430Z AUTO 06014KT 9999 // OVC063 26/19 Q1015
Conditions at: YBTL (TOWNSVILLE(CIV/M, AU) observed 0430 UTC 16 June 2019
Temperature: 26.0°C (79°F)
Dewpoint: 19.0°C (66°F) [RH = 65%]
Pressure (altimeter): 29.97 inches Hg (1015.0 mb)
Winds: from the ENE (60 degrees) at 16 MPH (14 knots; 7.2 m/s)
Visibility: 6 or more miles (10+ km)
Ceiling: 6300 feet AGL
Clouds: overcast cloud deck at 6300 feet AGL
Weather: no significant weather observed at this time

METAR text: YBTL 160400Z AUTO 05012KT 9999 // SCT065 27/18 Q1015
Conditions at: YBTL (TOWNSVILLE(CIV/M, AU) observed 0400 UTC 16 June 2019
Temperature: 27.0°C (81°F)
Dewpoint: 18.0°C (64°F) [RH = 58%]
Pressure (altimeter): 29.97 inches Hg (1015.0 mb)
Winds: from the NE (50 degrees) at 14 MPH (12 knots; 6.2 m/s)
Visibility: 6 or more miles (10+ km)
Ceiling: at least 12,000 feet AGL
Clouds: scattered clouds at 6500 feet AGL
Weather: no significant weather observed at this time

METAR text: YBTL 160330Z AUTO 05011KT 9999 // SCT060 27/17 Q1015
Conditions at: YBTL (TOWNSVILLE(CIV/M, AU) observed 0330 UTC 16 June 2019
Temperature: 27.0°C (81°F)
Dewpoint: 17.0°C (63°F) [RH = 54%]
Pressure (altimeter): 29.97 inches Hg (1015.0 mb)
Winds: from the NE (50 degrees) at 13 MPH (11 knots; 5.7 m/s)
Visibility: 6 or more miles (10+ km)
Ceiling: at least 12,000 feet AGL
Clouds: scattered clouds at 6000 feet AGL
Weather: no significant weather observed at this time

METAR text: YBTL 160300Z AUTO 06010KT 9999 // NCD 27/17 Q1016
Conditions at: YBTL (TOWNSVILLE(CIV/M, AU) observed 0300 UTC 16 June 2019
Temperature: 27.0°C (81°F)
Dewpoint: 17.0°C (63°F) [RH = 54%]
Pressure (altimeter): 30.00 inches Hg (1016.0 mb)
Winds: from the ENE (60 degrees) at 12 MPH (10 knots; 5.1 m/s)
Visibility: 6 or more miles (10+ km)
Ceiling: at least 12,000 feet AGL
Clouds: sky clear below 12,000 feet AGL
Weather: no significant weather observed at this time

METAR text: YBTL 160230Z AUTO 05010KT 9999 // OVC064 27/17 Q1016
Conditions at: YBTL (TOWNSVILLE(CIV/M, AU) observed 0230 UTC 16 June 2019
Temperature: 27.0°C (81°F)
Dewpoint: 17.0°C (63°F) [RH = 54%]
Pressure (altimeter): 30.00 inches Hg (1016.0 mb)
Winds: from the NE (50 degrees) at 12 MPH (10 knots; 5.1 m/s)
Visibility: 6 or more miles (10+ km)
Ceiling: 6400 feet AGL
Clouds: overcast cloud deck at 6400 feet AGL
Weather: no significant weather observed at this time

METAR text: YBTL 160200Z AUTO 07005KT 350V130 9999 // SCT035 OVC066 28/18 Q1017
Conditions at: YBTL (TOWNSVILLE(CIV/M, AU) observed 0200 UTC 16 June 2019
Temperature: 28.0°C (82°F)
Dewpoint: 18.0°C (64°F) [RH = 55%]
Pressure (altimeter): 30.03 inches Hg (1017.0 mb)
Winds: from the ENE (70 degrees) at 6 MPH (5 knots; 2.6 m/s)
Visibility: 6 or more miles (10+ km)
Ceiling: 6600 feet AGL
Clouds: scattered clouds at 3500 feet AGL
overcast cloud deck at 6600 feet AGL
Weather: no significant weather observed at this time

METAR text: YBTL 160130Z AUTO 29003KT 9999 // SCT035 OVC070 27/17 Q1017
Conditions at: YBTL (TOWNSVILLE(CIV/M, AU) observed 0130 UTC 16 June 2019
Temperature: 27.0°C (81°F)
Dewpoint: 17.0°C (63°F) [RH = 54%]
Pressure (altimeter): 30.03 inches Hg (1017.0 mb)
Winds: from the WNW (290 degrees) at 3 MPH (3 knots; 1.5 m/s)
Visibility: 6 or more miles (10+ km)
Ceiling: 7000 feet AGL
Clouds: scattered clouds at 3500 feet AGL
overcast cloud deck at 7000 feet AGL
Weather: no significant weather observed at this time

METAR text: YBTL 160100Z AUTO 17005KT 120V190 9999 // SCT062 26/17 Q1017
Conditions at: YBTL (TOWNSVILLE(CIV/M, AU) observed 0100 UTC 16 June 2019
Temperature: 26.0°C (79°F)
Dewpoint: 17.0°C (63°F) [RH = 58%]
Pressure (altimeter): 30.03 inches Hg (1017.0 mb)
Winds: from the S (170 degrees) at 6 MPH (5 knots; 2.6 m/s)
Visibility: 6 or more miles (10+ km)
Ceiling: at least 12,000 feet AGL
Clouds: scattered clouds at 6200 feet AGL
Weather: no significant weather observed at this time

METAR text: YBTL 160030Z AUTO 11005KT 9999 // SCT060 25/17 Q1018
Conditions at: YBTL (TOWNSVILLE(CIV/M, AU) observed 0030 UTC 16 June 2019
Temperature: 25.0°C (77°F)
Dewpoint: 17.0°C (63°F) [RH = 61%]
Pressure (altimeter): 30.06 inches Hg (1018.0 mb)
Winds: from the ESE (110 degrees) at 6 MPH (5 knots; 2.6 m/s)
Visibility: 6 or more miles (10+ km)
Ceiling: at least 12,000 feet AGL
Clouds: scattered clouds at 6000 feet AGL
Weather: no significant weather observed at this time

METAR text: YBTL 160000Z AUTO 14005KT 9999 // OVC058 25/18 Q1018
Conditions at: YBTL (TOWNSVILLE(CIV/M, AU) observed 0000 UTC 16 June 2019
Temperature: 25.0°C (77°F)
Dewpoint: 18.0°C (64°F) [RH = 65%]
Pressure (altimeter): 30.06 inches Hg (1018.0 mb)
Winds: from the SE (140 degrees) at 6 MPH (5 knots; 2.6 m/s)
Visibility: 6 or more miles (10+ km)
Ceiling: 5800 feet AGL
Clouds: overcast cloud deck at 5800 feet AGL
Weather: no significant weather observed at this time

Forecast for: YBTL (TOWNSVILLE(CIV/M, AU)
Text: TAF YBTL 171110Z 1712/1812 22005KT CAVOK
Forecast period: 1200 to 1500 UTC 17 June 2019
Forecast type: FROM: standard forecast or significant change
Winds: from the SW (220 degrees) at 6 MPH (5 knots; 2.6 m/s)
Visibility: 6 or more miles 10+ km)
Ceiling: unknown
Clouds: missing
Weather: NSW  (no significant weather)
Text: FM171500 VRB03KT 9999 MIFG FEW020
Forecast period: 1500 to 2200 UTC 17 June 2019
Forecast type: FROM: standard forecast or significant change
Winds: variable direction winds at 3 MPH (3 knots; 1.5 m/s)
Visibility: 6 or more miles 10+ km)
Ceiling: at least 12,000 feet AGL
Clouds: few clouds at 2000 feet AGL
Weather: MIFG  (shallow fog)
Text: FM172200 16006KT 9999 FEW030
Forecast period: 2200 UTC 17 June 2019 to 0300 UTC 18 June 2019
Forecast type: FROM: standard forecast or significant change
Winds: from the SSE (160 degrees) at 7 MPH (6 knots; 3.1 m/s)
Visibility: 6 or more miles 10+ km)
Ceiling: at least 12,000 feet AGL
Clouds: few clouds at 3000 feet AGL
Weather: no significant weather forecast for this period
Text: FM180300 03012KT 9999 FEW040
Forecast period: 0300 to 0800 UTC 18 June 2019
Forecast type: FROM: standard forecast or significant change
Winds: from the NNE (30 degrees) at 14 MPH (12 knots; 6.2 m/s)
Visibility: 6 or more miles 10+ km)
Ceiling: at least 12,000 feet AGL
Clouds: few clouds at 4000 feet AGL
Weather: no significant weather forecast for this period
Text: FM180800 17007KT CAVOK
Forecast period: 0800 to 1200 UTC 18 June 2019
Forecast type: FROM: standard forecast or significant change
Winds: from the S (170 degrees) at 8 MPH (7 knots; 3.6 m/s)
Visibility: 6 or more miles 10+ km)
Ceiling: unknown
Clouds: missing
Weather: NSW  (no significant weather)